sensor_id;sensor_type;location;lat;lon;timestamp;temperature;humidity
7159;DHT22;63175;52.374;13.132;2023-05-29T00:01:45;17.50;63.10
7159;DHT22;63175;52.374;13.132;2023-05-29T00:04:11;17.50;63.50
7159;DHT22;63175;52.374;13.132;2023-05-29T00:06:39;17.50;64.20
7159;DHT22;63175;52.374;13.132;2023-05-29T00:09:06;17.50;63.70
7159;DHT22;63175;52.374;13.132;2023-05-29T00:11:33;17.40;63.60
7159;DHT22;63175;52.374;13.132;2023-05-29T00:14:00;17.40;63.80
7159;DHT22;63175;52.374;13.132;2023-05-29T00:16:27;17.40;64.00
7159;DHT22;63175;52.374;13.132;2023-05-29T00:18:56;17.40;64.20
7159;DHT22;63175;52.374;13.132;2023-05-29T00:21:23;17.30;64.40
7159;DHT22;63175;52.374;13.132;2023-05-29T00:23:50;17.30;64.80
7159;DHT22;63175;52.374;13.132;2023-05-29T00:26:17;17.20;64.90
7159;DHT22;63175;52.374;13.132;2023-05-29T00:28:44;17.20;65.90
7159;DHT22;63175;52.374;13.132;2023-05-29T00:31:11;17.10;65.40
7159;DHT22;63175;52.374;13.132;2023-05-29T00:33:38;17.10;65.60
7159;DHT22;63175;52.374;13.132;2023-05-29T00:36:07;17.10;65.90
7159;DHT22;63175;52.374;13.132;2023-05-29T00:38:34;17.00;66.30
7159;DHT22;63175;52.374;13.132;2023-05-29T00:41:01;16.90;66.50
7159;DHT22;63175;52.374;13.132;2023-05-29T00:43:28;16.90;66.80
7159;DHT22;63175;52.374;13.132;2023-05-29T00:45:55;16.90;67.10
7159;DHT22;63175;52.374;13.132;2023-05-29T00:48:22;16.80;67.30
7159;DHT22;63175;52.374;13.132;2023-05-29T00:50:49;16.80;67.70
7159;DHT22;63175;52.374;13.132;2023-05-29T00:53:17;16.70;67.70
7159;DHT22;63175;52.374;13.132;2023-05-29T00:55:44;16.70;67.80
7159;DHT22;63175;52.374;13.132;2023-05-29T00:58:11;16.70;67.90
7159;DHT22;63175;52.374;13.132;2023-05-29T01:00:38;16.70;68.10
7159;DHT22;63175;52.374;13.132;2023-05-29T01:03:06;16.70;68.20
7159;DHT22;63175;52.374;13.132;2023-05-29T01:05:34;16.60;68.20
7159;DHT22;63175;52.374;13.132;2023-05-29T01:08:02;16.60;68.20
7159;DHT22;63175;52.374;13.132;2023-05-29T01:10:30;16.60;68.60
7159;DHT22;63175;52.374;13.132;2023-05-29T01:13:00;16.50;68.70
7159;DHT22;63175;52.374;13.132;2023-05-29T01:15:37;16.50;68.80
7159;DHT22;63175;52.374;13.132;2023-05-29T01:18:27;16.50;68.90
7159;DHT22;63175;52.374;13.132;2023-05-29T01:21:03;16.40;68.90
7159;DHT22;63175;52.374;13.132;2023-05-29T01:24:02;16.30;69.10
7159;DHT22;63175;52.374;13.132;2023-05-29T01:26:47;16.20;69.20
7159;DHT22;63175;52.374;13.132;2023-05-29T01:29:18;16.20;69.70
7159;DHT22;63175;52.374;13.132;2023-05-29T01:31:46;16.10;70.10
7159;DHT22;63175;52.374;13.132;2023-05-29T01:34:14;16.10;70.20
7159;DHT22;63175;52.374;13.132;2023-05-29T01:36:41;16.00;70.30
7159;DHT22;63175;52.374;13.132;2023-05-29T01:39:08;16.00;70.70
7159;DHT22;63175;52.374;13.132;2023-05-29T01:41:36;16.00;70.90
7159;DHT22;63175;52.374;13.132;2023-05-29T01:44:06;16.00;71.00
7159;DHT22;63175;52.374;13.132;2023-05-29T01:46:35;16.00;71.10
7159;DHT22;63175;52.374;13.132;2023-05-29T01:49:03;16.00;71.40
7159;DHT22;63175;52.374;13.132;2023-05-29T01:51:30;15.90;71.40
7159;DHT22;63175;52.374;13.132;2023-05-29T01:53:58;15.90;71.70
7159;DHT22;63175;52.374;13.132;2023-05-29T01:56:27;15.90;72.00
7159;DHT22;63175;52.374;13.132;2023-05-29T01:58:54;15.90;72.40
7159;DHT22;63175;52.374;13.132;2023-05-29T02:01:23;15.80;72.70
7159;DHT22;63175;52.374;13.132;2023-05-29T02:03:51;15.80;73.20
7159;DHT22;63175;52.374;13.132;2023-05-29T02:06:18;15.80;73.50
7159;DHT22;63175;52.374;13.132;2023-05-29T02:08:45;15.80;73.80
7159;DHT22;63175;52.374;13.132;2023-05-29T02:11:12;15.70;74.00
7159;DHT22;63175;52.374;13.132;2023-05-29T02:13:39;15.70;74.30
7159;DHT22;63175;52.374;13.132;2023-05-29T02:16:06;15.70;74.70
7159;DHT22;63175;52.374;13.132;2023-05-29T02:18:34;15.70;75.00
7159;DHT22;63175;52.374;13.132;2023-05-29T02:21:01;15.60;75.10
7159;DHT22;63175;52.374;13.132;2023-05-29T02:23:28;15.60;75.50
7159;DHT22;63175;52.374;13.132;2023-05-29T02:25:55;15.60;76.40
7159;DHT22;63175;52.374;13.132;2023-05-29T02:28:22;15.50;76.00
7159;DHT22;63175;52.374;13.132;2023-05-29T02:30:49;15.50;76.50
7159;DHT22;63175;52.374;13.132;2023-05-29T02:33:15;15.40;77.00
7159;DHT22;63175;52.374;13.132;2023-05-29T02:35:44;15.40;77.60
7159;DHT22;63175;52.374;13.132;2023-05-29T02:38:11;15.30;78.10
7159;DHT22;63175;52.374;13.132;2023-05-29T02:40:37;15.30;78.70
7159;DHT22;63175;52.374;13.132;2023-05-29T02:43:05;14.80;79.10
7159;DHT22;63175;52.374;13.132;2023-05-29T02:45:32;15.20;80.30
7159;DHT22;63175;52.374;13.132;2023-05-29T02:47:59;15.20;81.10
7159;DHT22;63175;52.374;13.132;2023-05-29T02:50:26;15.10;81.90
7159;DHT22;63175;52.374;13.132;2023-05-29T02:52:55;15.10;83.20
7159;DHT22;63175;52.374;13.132;2023-05-29T02:55:22;15.10;84.10
7159;DHT22;63175;52.374;13.132;2023-05-29T02:57:49;15.00;84.70
7159;DHT22;63175;52.374;13.132;2023-05-29T03:00:18;15.00;85.60
7159;DHT22;63175;52.374;13.132;2023-05-29T03:02:46;15.00;86.30
7159;DHT22;63175;52.374;13.132;2023-05-29T03:05:13;15.00;86.90
7159;DHT22;63175;52.374;13.132;2023-05-29T03:07:40;14.90;88.40
7159;DHT22;63175;52.374;13.132;2023-05-29T03:10:09;14.90;89.50
7159;DHT22;63175;52.374;13.132;2023-05-29T03:12:37;14.90;90.20
7159;DHT22;63175;52.374;13.132;2023-05-29T03:15:05;14.90;90.50
7159;DHT22;63175;52.374;13.132;2023-05-29T03:17:33;14.80;90.80
7159;DHT22;63175;52.374;13.132;2023-05-29T03:20:02;14.80;91.20
7159;DHT22;63175;52.374;13.132;2023-05-29T03:22:31;14.80;91.40
7159;DHT22;63175;52.374;13.132;2023-05-29T03:24:58;14.80;91.70
7159;DHT22;63175;52.374;13.132;2023-05-29T03:27:26;14.80;92.10
7159;DHT22;63175;52.374;13.132;2023-05-29T03:29:54;14.80;92.50
7159;DHT22;63175;52.374;13.132;2023-05-29T03:32:21;14.80;92.80
7159;DHT22;63175;52.374;13.132;2023-05-29T03:34:48;14.70;93.30
7159;DHT22;63175;52.374;13.132;2023-05-29T03:37:15;14.70;93.70
7159;DHT22;63175;52.374;13.132;2023-05-29T03:39:42;14.70;94.20
7159;DHT22;63175;52.374;13.132;2023-05-29T03:42:09;14.70;94.40
7159;DHT22;63175;52.374;13.132;2023-05-29T03:44:37;14.70;94.80
7159;DHT22;63175;52.374;13.132;2023-05-29T03:47:05;14.70;95.10
7159;DHT22;63175;52.374;13.132;2023-05-29T03:49:34;14.70;95.40
7159;DHT22;63175;52.374;13.132;2023-05-29T03:52:01;14.60;95.60
7159;DHT22;63175;52.374;13.132;2023-05-29T03:54:28;14.70;95.80
7159;DHT22;63175;52.374;13.132;2023-05-29T03:56:55;14.70;96.00
7159;DHT22;63175;52.374;13.132;2023-05-29T03:59:21;14.70;96.10
7159;DHT22;63175;52.374;13.132;2023-05-29T04:01:50;14.70;96.20
7159;DHT22;63175;52.374;13.132;2023-05-29T04:04:17;14.70;96.10
7159;DHT22;63175;52.374;13.132;2023-05-29T04:06:43;14.80;96.30
7159;DHT22;63175;52.374;13.132;2023-05-29T04:09:10;14.80;96.40
7159;DHT22;63175;52.374;13.132;2023-05-29T04:11:37;14.80;96.30
7159;DHT22;63175;52.374;13.132;2023-05-29T04:14:05;14.80;96.40
7159;DHT22;63175;52.374;13.132;2023-05-29T04:16:31;14.80;96.40
7159;DHT22;63175;52.374;13.132;2023-05-29T04:19:00;14.80;96.60
7159;DHT22;63175;52.374;13.132;2023-05-29T04:21:26;14.80;96.70
7159;DHT22;63175;52.374;13.132;2023-05-29T04:23:53;14.80;96.80
7159;DHT22;63175;52.374;13.132;2023-05-29T04:26:22;14.80;96.70
7159;DHT22;63175;52.374;13.132;2023-05-29T04:28:51;14.90;96.90
7159;DHT22;63175;52.374;13.132;2023-05-29T04:31:22;14.90;96.80
7159;DHT22;63175;52.374;13.132;2023-05-29T04:33:51;14.90;96.80
7159;DHT22;63175;52.374;13.132;2023-05-29T04:36:22;15.00;96.90
7159;DHT22;63175;52.374;13.132;2023-05-29T04:38:51;15.00;96.70
7159;DHT22;63175;52.374;13.132;2023-05-29T04:41:18;15.10;96.60
7159;DHT22;63175;52.374;13.132;2023-05-29T04:43:49;15.20;96.60
7159;DHT22;63175;52.374;13.132;2023-05-29T04:46:16;15.20;96.40
7159;DHT22;63175;52.374;13.132;2023-05-29T04:48:44;15.20;96.30
7159;DHT22;63175;52.374;13.132;2023-05-29T04:51:12;15.20;96.50
7159;DHT22;63175;52.374;13.132;2023-05-29T04:53:40;15.30;96.10
7159;DHT22;63175;52.374;13.132;2023-05-29T04:56:07;15.30;96.10
7159;DHT22;63175;52.374;13.132;2023-05-29T04:58:34;15.30;96.00
7159;DHT22;63175;52.374;13.132;2023-05-29T05:01:01;15.30;96.00
7159;DHT22;63175;52.374;13.132;2023-05-29T05:03:29;15.40;95.80
7159;DHT22;63175;52.374;13.132;2023-05-29T05:05:59;15.50;95.60
7159;DHT22;63175;52.374;13.132;2023-05-29T05:08:27;15.50;95.30
7159;DHT22;63175;52.374;13.132;2023-05-29T05:10:56;15.60;95.20
7159;DHT22;63175;52.374;13.132;2023-05-29T05:13:23;15.70;95.10
7159;DHT22;63175;52.374;13.132;2023-05-29T05:15:50;15.70;94.90
7159;DHT22;63175;52.374;13.132;2023-05-29T05:18:19;15.80;94.70
7159;DHT22;63175;52.374;13.132;2023-05-29T05:20:46;15.90;94.60
7159;DHT22;63175;52.374;13.132;2023-05-29T05:23:13;15.90;94.50
7159;DHT22;63175;52.374;13.132;2023-05-29T05:25:39;15.90;94.60
7159;DHT22;63175;52.374;13.132;2023-05-29T05:28:08;15.90;94.20
7159;DHT22;63175;52.374;13.132;2023-05-29T05:30:35;16.00;94.20
7159;DHT22;63175;52.374;13.132;2023-05-29T05:33:02;16.00;94.00
7159;DHT22;63175;52.374;13.132;2023-05-29T05:35:29;16.10;93.70
7159;DHT22;63175;52.374;13.132;2023-05-29T05:37:56;16.20;93.60
7159;DHT22;63175;52.374;13.132;2023-05-29T05:40:24;16.20;93.50
7159;DHT22;63175;52.374;13.132;2023-05-29T05:42:51;16.20;93.30
7159;DHT22;63175;52.374;13.132;2023-05-29T05:45:19;16.30;93.20
7159;DHT22;63175;52.374;13.132;2023-05-29T05:47:46;16.30;93.10
7159;DHT22;63175;52.374;13.132;2023-05-29T05:50:13;16.30;92.90
7159;DHT22;63175;52.374;13.132;2023-05-29T05:52:40;16.40;92.70
7159;DHT22;63175;52.374;13.132;2023-05-29T05:55:07;16.50;92.50
7159;DHT22;63175;52.374;13.132;2023-05-29T05:57:34;16.50;92.40
7159;DHT22;63175;52.374;13.132;2023-05-29T06:00:02;16.60;92.30
7159;DHT22;63175;52.374;13.132;2023-05-29T06:02:31;16.60;92.00
7159;DHT22;63175;52.374;13.132;2023-05-29T06:04:58;16.70;91.90
7159;DHT22;63175;52.374;13.132;2023-05-29T06:07:25;16.80;91.60
7159;DHT22;63175;52.374;13.132;2023-05-29T06:09:52;16.90;91.40
7159;DHT22;63175;52.374;13.132;2023-05-29T06:12:18;17.00;91.10
7159;DHT22;63175;52.374;13.132;2023-05-29T06:14:45;17.10;90.90
7159;DHT22;63175;52.374;13.132;2023-05-29T06:17:12;17.10;90.70
7159;DHT22;63175;52.374;13.132;2023-05-29T06:19:40;17.20;90.60
7159;DHT22;63175;52.374;13.132;2023-05-29T06:22:07;17.30;90.60
7159;DHT22;63175;52.374;13.132;2023-05-29T06:24:34;17.40;90.10
7159;DHT22;63175;52.374;13.132;2023-05-29T06:27:01;17.50;89.90
7159;DHT22;63175;52.374;13.132;2023-05-29T06:29:28;17.60;89.00
7159;DHT22;63175;52.374;13.132;2023-05-29T06:31:55;17.70;87.80
7159;DHT22;63175;52.374;13.132;2023-05-29T06:34:22;17.80;87.10
7159;DHT22;63175;52.374;13.132;2023-05-29T06:36:50;17.90;86.40
7159;DHT22;63175;52.374;13.132;2023-05-29T06:39:17;18.10;86.10
7159;DHT22;63175;52.374;13.132;2023-05-29T06:41:45;18.20;85.50
7159;DHT22;63175;52.374;13.132;2023-05-29T06:44:12;18.30;83.90
7159;DHT22;63175;52.374;13.132;2023-05-29T06:46:39;18.40;82.20
7159;DHT22;63175;52.374;13.132;2023-05-29T06:49:06;18.50;81.00
7159;DHT22;63175;52.374;13.132;2023-05-29T06:51:33;18.60;79.90
7159;DHT22;63175;52.374;13.132;2023-05-29T06:54:02;18.80;79.60
7159;DHT22;63175;52.374;13.132;2023-05-29T06:56:29;18.90;79.00
7159;DHT22;63175;52.374;13.132;2023-05-29T06:58:56;19.00;78.40
7159;DHT22;63175;52.374;13.132;2023-05-29T07:01:22;19.10;77.40
7159;DHT22;63175;52.374;13.132;2023-05-29T07:03:51;19.30;76.50
7159;DHT22;63175;52.374;13.132;2023-05-29T07:06:19;19.30;74.70
7159;DHT22;63175;52.374;13.132;2023-05-29T07:08:46;19.40;73.40
7159;DHT22;63175;52.374;13.132;2023-05-29T07:11:14;19.50;72.80
7159;DHT22;63175;52.374;13.132;2023-05-29T07:13:41;19.60;72.10
7159;DHT22;63175;52.374;13.132;2023-05-29T07:16:07;19.80;70.30
7159;DHT22;63175;52.374;13.132;2023-05-29T07:18:34;19.90;69.40
7159;DHT22;63175;52.374;13.132;2023-05-29T07:21:01;20.00;69.00
7159;DHT22;63175;52.374;13.132;2023-05-29T07:23:28;20.20;68.40
7159;DHT22;63175;52.374;13.132;2023-05-29T07:25:55;20.40;67.90
7159;DHT22;63175;52.374;13.132;2023-05-29T07:28:23;20.60;67.00
7159;DHT22;63175;52.374;13.132;2023-05-29T07:30:50;20.70;65.80
7159;DHT22;63175;52.374;13.132;2023-05-29T07:33:16;20.80;64.70
7159;DHT22;63175;52.374;13.132;2023-05-29T07:35:43;20.80;63.70
7159;DHT22;63175;52.374;13.132;2023-05-29T07:38:10;20.80;63.00
7159;DHT22;63175;52.374;13.132;2023-05-29T07:40:37;20.80;62.20
7159;DHT22;63175;52.374;13.132;2023-05-29T07:43:04;20.80;62.10
7159;DHT22;63175;52.374;13.132;2023-05-29T07:45:32;20.90;62.20
7159;DHT22;63175;52.374;13.132;2023-05-29T07:47:59;21.00;62.10
7159;DHT22;63175;52.374;13.132;2023-05-29T07:50:26;21.10;61.60
7159;DHT22;63175;52.374;13.132;2023-05-29T07:52:52;21.20;60.70
7159;DHT22;63175;52.374;13.132;2023-05-29T07:55:21;21.40;60.30
7159;DHT22;63175;52.374;13.132;2023-05-29T07:57:48;21.50;59.80
7159;DHT22;63175;52.374;13.132;2023-05-29T08:00:15;21.50;58.70
7159;DHT22;63175;52.374;13.132;2023-05-29T08:02:44;21.60;58.60
7159;DHT22;63175;52.374;13.132;2023-05-29T08:05:11;21.70;58.40
7159;DHT22;63175;52.374;13.132;2023-05-29T08:07:38;21.80;56.80
7159;DHT22;63175;52.374;13.132;2023-05-29T08:10:06;21.90;56.10
7159;DHT22;63175;52.374;13.132;2023-05-29T08:12:33;22.00;56.10
7159;DHT22;63175;52.374;13.132;2023-05-29T08:15:01;22.10;55.90
7159;DHT22;63175;52.374;13.132;2023-05-29T08:17:28;22.20;55.70
7159;DHT22;63175;52.374;13.132;2023-05-29T08:19:56;22.10;55.50
7159;DHT22;63175;52.374;13.132;2023-05-29T08:22:28;22.00;55.60
7159;DHT22;63175;52.374;13.132;2023-05-29T08:24:55;21.90;55.70
7159;DHT22;63175;52.374;13.132;2023-05-29T08:27:22;21.90;55.70
7159;DHT22;63175;52.374;13.132;2023-05-29T08:29:50;22.00;55.50
7159;DHT22;63175;52.374;13.132;2023-05-29T08:32:17;22.20;55.20
7159;DHT22;63175;52.374;13.132;2023-05-29T08:34:43;22.40;54.90
7159;DHT22;63175;52.374;13.132;2023-05-29T08:37:13;22.60;54.50
7159;DHT22;63175;52.374;13.132;2023-05-29T08:39:40;22.80;53.90
7159;DHT22;63175;52.374;13.132;2023-05-29T08:42:10;23.10;53.60
7159;DHT22;63175;52.374;13.132;2023-05-29T08:44:39;23.30;53.00
7159;DHT22;63175;52.374;13.132;2023-05-29T08:47:07;23.60;53.00
7159;DHT22;63175;52.374;13.132;2023-05-29T08:49:40;23.80;52.80
7159;DHT22;63175;52.374;13.132;2023-05-29T08:52:11;23.80;52.20
7159;DHT22;63175;52.374;13.132;2023-05-29T08:54:40;23.90;52.20
7159;DHT22;63175;52.374;13.132;2023-05-29T08:57:07;24.00;52.10
7159;DHT22;63175;52.374;13.132;2023-05-29T08:59:35;24.00;51.60
7159;DHT22;63175;52.374;13.132;2023-05-29T09:02:03;24.00;51.60
7159;DHT22;63175;52.374;13.132;2023-05-29T09:04:31;24.00;51.60
7159;DHT22;63175;52.374;13.132;2023-05-29T09:06:58;24.00;51.90
7159;DHT22;63175;52.374;13.132;2023-05-29T09:09:27;24.00;51.60
7159;DHT22;63175;52.374;13.132;2023-05-29T09:11:54;23.90;50.80
7159;DHT22;63175;52.374;13.132;2023-05-29T09:14:35;23.90;50.70
7159;DHT22;63175;52.374;13.132;2023-05-29T09:17:03;23.80;50.60
7159;DHT22;63175;52.374;13.132;2023-05-29T09:19:30;23.70;50.90
7159;DHT22;63175;52.374;13.132;2023-05-29T09:22:01;23.60;50.60
7159;DHT22;63175;52.374;13.132;2023-05-29T09:24:32;23.60;50.90
7159;DHT22;63175;52.374;13.132;2023-05-29T09:26:59;23.70;51.10
7159;DHT22;63175;52.374;13.132;2023-05-29T09:29:26;23.70;51.00
7159;DHT22;63175;52.374;13.132;2023-05-29T09:31:53;23.90;51.10
7159;DHT22;63175;52.374;13.132;2023-05-29T09:34:23;24.10;51.00
7159;DHT22;63175;52.374;13.132;2023-05-29T09:36:52;24.20;50.80
7159;DHT22;63175;52.374;13.132;2023-05-29T09:39:19;24.30;51.00
7159;DHT22;63175;52.374;13.132;2023-05-29T09:41:47;24.30;50.40
7159;DHT22;63175;52.374;13.132;2023-05-29T09:44:15;24.30;50.40
7159;DHT22;63175;52.374;13.132;2023-05-29T09:46:42;24.40;50.70
7159;DHT22;63175;52.374;13.132;2023-05-29T09:49:11;24.60;50.80
7159;DHT22;63175;52.374;13.132;2023-05-29T09:51:38;24.70;50.40
7159;DHT22;63175;52.374;13.132;2023-05-29T09:54:15;24.70;50.40
7159;DHT22;63175;52.374;13.132;2023-05-29T09:56:43;24.70;50.30
7159;DHT22;63175;52.374;13.132;2023-05-29T09:59:12;24.70;50.20
7159;DHT22;63175;52.374;13.132;2023-05-29T10:01:41;24.80;50.30
7159;DHT22;63175;52.374;13.132;2023-05-29T10:04:10;24.80;49.80
7159;DHT22;63175;52.374;13.132;2023-05-29T10:06:38;24.70;49.90
7159;DHT22;63175;52.374;13.132;2023-05-29T10:09:09;24.70;50.60
7159;DHT22;63175;52.374;13.132;2023-05-29T10:11:38;24.90;50.50
7159;DHT22;63175;52.374;13.132;2023-05-29T10:14:09;25.10;50.00
7159;DHT22;63175;52.374;13.132;2023-05-29T10:16:42;25.20;49.70
7159;DHT22;63175;52.374;13.132;2023-05-29T10:19:13;25.30;49.70
7159;DHT22;63175;52.374;13.132;2023-05-29T10:21:43;25.30;49.50
7159;DHT22;63175;52.374;13.132;2023-05-29T10:24:11;25.40;49.30
7159;DHT22;63175;52.374;13.132;2023-05-29T10:26:40;25.40;49.60
7159;DHT22;63175;52.374;13.132;2023-05-29T10:29:11;25.60;49.10
7159;DHT22;63175;52.374;13.132;2023-05-29T10:31:47;25.70;48.90
7159;DHT22;63175;52.374;13.132;2023-05-29T10:34:26;25.60;49.00
7159;DHT22;63175;52.374;13.132;2023-05-29T10:37:02;25.60;48.90
7159;DHT22;63175;52.374;13.132;2023-05-29T10:39:31;25.70;48.20
7159;DHT22;63175;52.374;13.132;2023-05-29T10:41:59;25.80;48.10
7159;DHT22;63175;52.374;13.132;2023-05-29T10:44:38;26.00;47.40
7159;DHT22;63175;52.374;13.132;2023-05-29T10:47:08;26.00;47.20
7159;DHT22;63175;52.374;13.132;2023-05-29T10:49:37;26.20;47.20
7159;DHT22;63175;52.374;13.132;2023-05-29T10:52:04;26.30;47.20
7159;DHT22;63175;52.374;13.132;2023-05-29T10:54:41;26.50;46.90
7159;DHT22;63175;52.374;13.132;2023-05-29T10:57:16;26.60;46.40
7159;DHT22;63175;52.374;13.132;2023-05-29T10:59:45;26.40;45.70
7159;DHT22;63175;52.374;13.132;2023-05-29T11:02:17;26.20;45.50
7159;DHT22;63175;52.374;13.132;2023-05-29T11:05:04;25.90;45.60
7159;DHT22;63175;52.374;13.132;2023-05-29T11:07:35;25.80;46.10
7159;DHT22;63175;52.374;13.132;2023-05-29T11:10:12;25.70;46.20
7159;DHT22;63175;52.374;13.132;2023-05-29T11:12:57;25.70;45.70
7159;DHT22;63175;52.374;13.132;2023-05-29T11:15:25;25.70;45.70
7159;DHT22;63175;52.374;13.132;2023-05-29T11:17:54;25.90;45.80
7159;DHT22;63175;52.374;13.132;2023-05-29T11:20:36;26.10;45.70
7159;DHT22;63175;52.374;13.132;2023-05-29T11:23:04;26.10;44.80
7159;DHT22;63175;52.374;13.132;2023-05-29T11:25:35;26.50;44.70
7159;DHT22;63175;52.374;13.132;2023-05-29T11:28:03;26.70;44.30
7159;DHT22;63175;52.374;13.132;2023-05-29T11:30:41;26.80;44.00
7159;DHT22;63175;52.374;13.132;2023-05-29T11:33:22;27.00;43.50
7159;DHT22;63175;52.374;13.132;2023-05-29T11:35:57;27.00;42.60
7159;DHT22;63175;52.374;13.132;2023-05-29T11:38:24;27.00;42.40
7159;DHT22;63175;52.374;13.132;2023-05-29T11:40:53;27.10;42.40
7159;DHT22;63175;52.374;13.132;2023-05-29T11:43:20;27.30;41.70
7159;DHT22;63175;52.374;13.132;2023-05-29T11:45:47;27.40;41.60
7159;DHT22;63175;52.374;13.132;2023-05-29T11:48:15;27.40;41.60
7159;DHT22;63175;52.374;13.132;2023-05-29T11:50:42;27.30;41.40
7159;DHT22;63175;52.374;13.132;2023-05-29T11:53:11;26.90;41.30
7159;DHT22;63175;52.374;13.132;2023-05-29T11:55:38;26.80;41.90
7159;DHT22;63175;52.374;13.132;2023-05-29T11:58:05;26.80;41.70
7159;DHT22;63175;52.374;13.132;2023-05-29T12:00:34;26.90;41.10
7159;DHT22;63175;52.374;13.132;2023-05-29T12:03:02;27.10;40.80
7159;DHT22;63175;52.374;13.132;2023-05-29T12:05:32;27.20;40.30
7159;DHT22;63175;52.374;13.132;2023-05-29T12:07:59;27.10;40.60
7159;DHT22;63175;52.374;13.132;2023-05-29T12:10:28;26.90;41.30
7159;DHT22;63175;52.374;13.132;2023-05-29T12:12:57;26.90;41.80
7159;DHT22;63175;52.374;13.132;2023-05-29T12:15:24;27.00;42.10
7159;DHT22;63175;52.374;13.132;2023-05-29T12:17:52;27.10;41.80
7159;DHT22;63175;52.374;13.132;2023-05-29T12:20:23;27.20;41.90
7159;DHT22;63175;52.374;13.132;2023-05-29T12:22:59;27.40;41.80
7159;DHT22;63175;52.374;13.132;2023-05-29T12:25:26;27.60;41.10
7159;DHT22;63175;52.374;13.132;2023-05-29T12:27:55;27.60;40.70
7159;DHT22;63175;52.374;13.132;2023-05-29T12:30:23;27.70;40.00
7159;DHT22;63175;52.374;13.132;2023-05-29T12:32:52;27.70;39.40
7159;DHT22;63175;52.374;13.132;2023-05-29T12:35:20;27.70;39.30
7159;DHT22;63175;52.374;13.132;2023-05-29T12:37:48;27.70;39.10
7159;DHT22;63175;52.374;13.132;2023-05-29T12:40:17;27.80;38.70
7159;DHT22;63175;52.374;13.132;2023-05-29T12:42:46;27.90;38.70
7159;DHT22;63175;52.374;13.132;2023-05-29T12:45:13;27.90;39.00
7159;DHT22;63175;52.374;13.132;2023-05-29T12:47:55;28.00;39.00
7159;DHT22;63175;52.374;13.132;2023-05-29T12:50:24;28.20;38.70
7159;DHT22;63175;52.374;13.132;2023-05-29T12:52:55;28.30;38.50
7159;DHT22;63175;52.374;13.132;2023-05-29T12:55:24;28.30;38.30
7159;DHT22;63175;52.374;13.132;2023-05-29T12:57:51;28.30;38.30
7159;DHT22;63175;52.374;13.132;2023-05-29T13:00:19;28.40;37.50
7159;DHT22;63175;52.374;13.132;2023-05-29T13:02:46;28.40;37.50
7159;DHT22;63175;52.374;13.132;2023-05-29T13:05:13;28.30;37.50
7159;DHT22;63175;52.374;13.132;2023-05-29T13:07:41;28.40;37.70
7159;DHT22;63175;52.374;13.132;2023-05-29T13:10:08;28.50;37.60
7159;DHT22;63175;52.374;13.132;2023-05-29T13:12:37;28.50;37.50
7159;DHT22;63175;52.374;13.132;2023-05-29T13:15:04;28.70;37.20
7159;DHT22;63175;52.374;13.132;2023-05-29T13:17:31;28.80;37.00
7159;DHT22;63175;52.374;13.132;2023-05-29T13:19:58;29.00;36.30
7159;DHT22;63175;52.374;13.132;2023-05-29T13:22:25;29.10;36.50
7159;DHT22;63175;52.374;13.132;2023-05-29T13:24:57;29.00;37.10
7159;DHT22;63175;52.374;13.132;2023-05-29T13:27:24;29.00;37.30
7159;DHT22;63175;52.374;13.132;2023-05-29T13:29:53;29.00;37.20
7159;DHT22;63175;52.374;13.132;2023-05-29T13:32:20;29.10;36.70
7159;DHT22;63175;52.374;13.132;2023-05-29T13:34:47;29.20;36.70
7159;DHT22;63175;52.374;13.132;2023-05-29T13:37:14;29.30;36.30
7159;DHT22;63175;52.374;13.132;2023-05-29T13:39:41;29.20;35.90
7159;DHT22;63175;52.374;13.132;2023-05-29T13:42:08;29.20;36.10
7159;DHT22;63175;52.374;13.132;2023-05-29T13:44:36;29.20;35.70
7159;DHT22;63175;52.374;13.132;2023-05-29T13:47:05;29.30;35.60
7159;DHT22;63175;52.374;13.132;2023-05-29T13:49:32;29.40;35.50
7159;DHT22;63175;52.374;13.132;2023-05-29T13:51:59;29.30;35.80
7159;DHT22;63175;52.374;13.132;2023-05-29T13:54:26;29.20;35.40
7159;DHT22;63175;52.374;13.132;2023-05-29T13:56:55;29.30;35.50
7159;DHT22;63175;52.374;13.132;2023-05-29T13:59:22;29.50;35.50
7159;DHT22;63175;52.374;13.132;2023-05-29T14:01:49;29.80;35.40
7159;DHT22;63175;52.374;13.132;2023-05-29T14:04:18;29.90;34.80
7159;DHT22;63175;52.374;13.132;2023-05-29T14:06:44;29.80;34.30
7159;DHT22;63175;52.374;13.132;2023-05-29T14:09:11;29.90;34.70
7159;DHT22;63175;52.374;13.132;2023-05-29T14:11:38;29.90;34.40
7159;DHT22;63175;52.374;13.132;2023-05-29T14:14:06;29.80;34.60
7159;DHT22;63175;52.374;13.132;2023-05-29T14:16:33;29.50;34.20
7159;DHT22;63175;52.374;13.132;2023-05-29T14:19:00;29.50;34.50
7159;DHT22;63175;52.374;13.132;2023-05-29T14:21:28;29.50;34.50
7159;DHT22;63175;52.374;13.132;2023-05-29T14:23:56;29.50;33.90
7159;DHT22;63175;52.374;13.132;2023-05-29T14:26:22;29.60;33.80
7159;DHT22;63175;52.374;13.132;2023-05-29T14:28:50;29.60;33.90
7159;DHT22;63175;52.374;13.132;2023-05-29T14:31:16;29.60;34.20
7159;DHT22;63175;52.374;13.132;2023-05-29T14:33:43;29.70;34.40
7159;DHT22;63175;52.374;13.132;2023-05-29T14:36:10;29.70;34.20
7159;DHT22;63175;52.374;13.132;2023-05-29T14:38:39;29.80;34.20
7159;DHT22;63175;52.374;13.132;2023-05-29T14:41:06;29.80;34.00
7159;DHT22;63175;52.374;13.132;2023-05-29T14:43:33;29.90;33.80
7159;DHT22;63175;52.374;13.132;2023-05-29T14:46:00;29.90;33.60
7159;DHT22;63175;52.374;13.132;2023-05-29T14:48:27;29.90;33.50
7159;DHT22;63175;52.374;13.132;2023-05-29T14:50:54;29.80;33.50
7159;DHT22;63175;52.374;13.132;2023-05-29T14:53:21;29.70;33.70
7159;DHT22;63175;52.374;13.132;2023-05-29T14:55:49;29.70;33.60
7159;DHT22;63175;52.374;13.132;2023-05-29T14:58:16;29.70;33.80
7159;DHT22;63175;52.374;13.132;2023-05-29T15:00:43;29.70;34.20
7159;DHT22;63175;52.374;13.132;2023-05-29T15:03:10;29.60;34.30
7159;DHT22;63175;52.374;13.132;2023-05-29T15:05:37;29.50;34.10
7159;DHT22;63175;52.374;13.132;2023-05-29T15:08:04;29.40;34.10
7159;DHT22;63175;52.374;13.132;2023-05-29T15:10:31;29.10;34.10
7159;DHT22;63175;52.374;13.132;2023-05-29T15:12:59;28.90;34.20
7159;DHT22;63175;52.374;13.132;2023-05-29T15:15:27;28.90;34.30
7159;DHT22;63175;52.374;13.132;2023-05-29T15:17:54;28.80;34.60
7159;DHT22;63175;52.374;13.132;2023-05-29T15:20:22;28.70;34.90
7159;DHT22;63175;52.374;13.132;2023-05-29T15:22:49;28.60;34.90
7159;DHT22;63175;52.374;13.132;2023-05-29T15:25:17;28.50;35.10
7159;DHT22;63175;52.374;13.132;2023-05-29T15:27:45;28.30;35.60
7159;DHT22;63175;52.374;13.132;2023-05-29T15:30:14;28.10;35.80
7159;DHT22;63175;52.374;13.132;2023-05-29T15:32:42;28.00;35.90
7159;DHT22;63175;52.374;13.132;2023-05-29T15:35:10;27.80;36.10
7159;DHT22;63175;52.374;13.132;2023-05-29T15:37:37;27.70;36.50